sensor_id;sensor_type;location;lat;lon;timestamp;P1;durP1;ratioP1;P2;durP2;ratioP2
2928;SDS011;1474;51.460;7.150;2023-04-03T00:00:32;4.25;;;3.78;;
2928;SDS011;1474;51.460;7.150;2023-04-03T00:02:58;4.53;;;3.85;;
2928;SDS011;1474;51.460;7.150;2023-04-03T00:05:24;5.18;;;4.35;;
2928;SDS011;1474;51.460;7.150;2023-04-03T00:07:51;3.97;;;3.58;;
2928;SDS011;1474;51.460;7.150;2023-04-03T00:10:16;4.75;;;4.30;;
2928;SDS011;1474;51.460;7.150;2023-04-03T00:12:42;4.50;;;3.45;;
2928;SDS011;1474;51.460;7.150;2023-04-03T00:15:08;4.45;;;4.05;;
2928;SDS011;1474;51.460;7.150;2023-04-03T00:17:34;5.93;;;4.00;;
2928;SDS011;1474;51.460;7.150;2023-04-03T00:20:00;4.70;;;4.07;;
2928;SDS011;1474;51.460;7.150;2023-04-03T00:22:27;8.02;;;4.30;;
2928;SDS011;1474;51.460;7.150;2023-04-03T00:24:55;7.18;;;5.28;;
2928;SDS011;1474;51.460;7.150;2023-04-03T00:27:21;5.20;;;3.95;;
2928;SDS011;1474;51.460;7.150;2023-04-03T00:29:49;4.43;;;3.97;;
2928;SDS011;1474;51.460;7.150;2023-04-03T00:32:16;4.40;;;3.78;;
2928;SDS011;1474;51.460;7.150;2023-04-03T00:34:43;4.47;;;4.07;;
2928;SDS011;1474;51.460;7.150;2023-04-03T00:37:09;4.97;;;4.50;;
2928;SDS011;1474;51.460;7.150;2023-04-03T00:39:35;4.78;;;4.30;;
2928;SDS011;1474;51.460;7.150;2023-04-03T00:42:00;4.78;;;3.95;;
2928;SDS011;1474;51.460;7.150;2023-04-03T00:47:00;4.53;;;4.13;;
2928;SDS011;1474;51.460;7.150;2023-04-03T00:49:27;5.60;;;4.43;;
2928;SDS011;1474;51.460;7.150;2023-04-03T00:51:53;5.35;;;3.35;;
2928;SDS011;1474;51.460;7.150;2023-04-03T00:54:20;7.22;;;4.18;;
2928;SDS011;1474;51.460;7.150;2023-04-03T00:56:46;5.43;;;4.05;;
2928;SDS011;1474;51.460;7.150;2023-04-03T00:59:14;5.15;;;3.65;;
2928;SDS011;1474;51.460;7.150;2023-04-03T01:01:43;3.97;;;3.40;;
2928;SDS011;1474;51.460;7.150;2023-04-03T01:04:26;5.13;;;4.63;;
2928;SDS011;1474;51.460;7.150;2023-04-03T01:06:59;7.25;;;4.78;;
2928;SDS011;1474;51.460;7.150;2023-04-03T01:09:29;4.68;;;3.63;;
2928;SDS011;1474;51.460;7.150;2023-04-03T01:14:47;5.95;;;3.83;;
2928;SDS011;1474;51.460;7.150;2023-04-03T01:25:39;5.53;;;3.17;;
2928;SDS011;1474;51.460;7.150;2023-04-03T01:28:11;4.75;;;2.67;;
2928;SDS011;1474;51.460;7.150;2023-04-03T01:33:42;8.32;;;2.88;;
2928;SDS011;1474;51.460;7.150;2023-04-03T01:36:08;2.67;;;2.10;;
2928;SDS011;1474;51.460;7.150;2023-04-03T01:38:38;3.53;;;3.15;;
2928;SDS011;1474;51.460;7.150;2023-04-03T01:41:03;8.25;;;2.83;;
2928;SDS011;1474;51.460;7.150;2023-04-03T01:43:29;6.72;;;2.97;;
2928;SDS011;1474;51.460;7.150;2023-04-03T01:45:55;2.88;;;1.73;;
2928;SDS011;1474;51.460;7.150;2023-04-03T01:48:21;2.60;;;2.00;;
2928;SDS011;1474;51.460;7.150;2023-04-03T01:50:46;2.83;;;2.60;;
2928;SDS011;1474;51.460;7.150;2023-04-03T01:53:12;2.80;;;2.58;;
2928;SDS011;1474;51.460;7.150;2023-04-03T01:55:38;3.65;;;2.50;;
2928;SDS011;1474;51.460;7.150;2023-04-03T01:58:04;5.10;;;2.42;;
2928;SDS011;1474;51.460;7.150;2023-04-03T02:00:29;3.10;;;2.45;;
2928;SDS011;1474;51.460;7.150;2023-04-03T02:02:55;2.03;;;1.65;;
2928;SDS011;1474;51.460;7.150;2023-04-03T02:05:21;6.05;;;2.47;;
2928;SDS011;1474;51.460;7.150;2023-04-03T02:07:47;2.67;;;2.13;;
2928;SDS011;1474;51.460;7.150;2023-04-03T02:10:13;3.85;;;2.30;;
2928;SDS011;1474;51.460;7.150;2023-04-03T02:12:38;9.65;;;2.22;;
2928;SDS011;1474;51.460;7.150;2023-04-03T02:15:04;3.55;;;2.08;;
2928;SDS011;1474;51.460;7.150;2023-04-03T02:17:30;3.25;;;2.00;;
2928;SDS011;1474;51.460;7.150;2023-04-03T02:19:56;3.22;;;2.15;;
2928;SDS011;1474;51.460;7.150;2023-04-03T02:22:22;4.15;;;1.80;;
2928;SDS011;1474;51.460;7.150;2023-04-03T02:24:47;2.55;;;1.98;;
2928;SDS011;1474;51.460;7.150;2023-04-03T02:27:13;2.60;;;1.88;;
2928;SDS011;1474;51.460;7.150;2023-04-03T02:29:39;1.48;;;1.30;;
2928;SDS011;1474;51.460;7.150;2023-04-03T02:32:05;3.67;;;3.05;;
2928;SDS011;1474;51.460;7.150;2023-04-03T02:34:30;3.13;;;2.15;;
2928;SDS011;1474;51.460;7.150;2023-04-03T02:36:56;3.03;;;2.00;;
2928;SDS011;1474;51.460;7.150;2023-04-03T02:39:22;2.35;;;1.65;;
2928;SDS011;1474;51.460;7.150;2023-04-03T02:41:47;3.17;;;1.38;;
2928;SDS011;1474;51.460;7.150;2023-04-03T02:44:13;7.88;;;2.33;;
2928;SDS011;1474;51.460;7.150;2023-04-03T02:46:39;2.10;;;1.42;;
2928;SDS011;1474;51.460;7.150;2023-04-03T02:49:04;1.17;;;1.08;;
2928;SDS011;1474;51.460;7.150;2023-04-03T02:51:30;1.42;;;1.05;;
2928;SDS011;1474;51.460;7.150;2023-04-03T02:53:56;1.80;;;1.58;;
2928;SDS011;1474;51.460;7.150;2023-04-03T02:56:22;1.48;;;1.38;;
2928;SDS011;1474;51.460;7.150;2023-04-03T02:58:47;1.02;;;0.98;;
2928;SDS011;1474;51.460;7.150;2023-04-03T03:01:13;0.98;;;0.85;;
2928;SDS011;1474;51.460;7.150;2023-04-03T03:03:39;2.17;;;1.55;;
2928;SDS011;1474;51.460;7.150;2023-04-03T03:06:06;2.25;;;1.30;;
2928;SDS011;1474;51.460;7.150;2023-04-03T03:08:33;1.67;;;1.52;;
2928;SDS011;1474;51.460;7.150;2023-04-03T03:10:58;0.90;;;0.80;;
2928;SDS011;1474;51.460;7.150;2023-04-03T03:13:24;0.88;;;0.80;;
2928;SDS011;1474;51.460;7.150;2023-04-03T03:15:51;1.40;;;1.00;;
2928;SDS011;1474;51.460;7.150;2023-04-03T03:18:16;0.80;;;0.65;;
2928;SDS011;1474;51.460;7.150;2023-04-03T03:20:42;1.02;;;0.93;;
2928;SDS011;1474;51.460;7.150;2023-04-03T03:23:08;2.90;;;1.00;;
2928;SDS011;1474;51.460;7.150;2023-04-03T03:25:37;1.90;;;1.00;;
2928;SDS011;1474;51.460;7.150;2023-04-03T03:28:06;2.22;;;1.23;;
2928;SDS011;1474;51.460;7.150;2023-04-03T03:30:32;6.70;;;1.50;;
2928;SDS011;1474;51.460;7.150;2023-04-03T03:32:58;0.98;;;0.88;;
2928;SDS011;1474;51.460;7.150;2023-04-03T03:35:24;1.13;;;1.02;;
2928;SDS011;1474;51.460;7.150;2023-04-03T03:37:50;4.22;;;1.00;;
2928;SDS011;1474;51.460;7.150;2023-04-03T03:40:15;2.63;;;1.20;;
2928;SDS011;1474;51.460;7.150;2023-04-03T03:42:41;2.03;;;1.83;;
2928;SDS011;1474;51.460;7.150;2023-04-03T03:45:07;2.50;;;1.48;;
2928;SDS011;1474;51.460;7.150;2023-04-03T03:47:33;1.38;;;1.25;;
2928;SDS011;1474;51.460;7.150;2023-04-03T03:49:59;0.93;;;0.73;;
2928;SDS011;1474;51.460;7.150;2023-04-03T03:52:25;2.28;;;1.48;;
2928;SDS011;1474;51.460;7.150;2023-04-03T03:54:51;1.42;;;0.75;;
2928;SDS011;1474;51.460;7.150;2023-04-03T03:57:17;5.20;;;1.40;;
2928;SDS011;1474;51.460;7.150;2023-04-03T03:59:42;1.75;;;0.73;;
2928;SDS011;1474;51.460;7.150;2023-04-03T04:02:09;1.95;;;0.60;;
2928;SDS011;1474;51.460;7.150;2023-04-03T04:04:35;0.65;;;0.65;;
2928;SDS011;1474;51.460;7.150;2023-04-03T04:07:01;0.98;;;0.93;;
2928;SDS011;1474;51.460;7.150;2023-04-03T04:09:27;1.25;;;0.75;;
2928;SDS011;1474;51.460;7.150;2023-04-03T04:11:53;4.15;;;1.92;;
2928;SDS011;1474;51.460;7.150;2023-04-03T04:14:18;2.85;;;1.05;;
2928;SDS011;1474;51.460;7.150;2023-04-03T04:16:45;0.98;;;0.80;;
2928;SDS011;1474;51.460;7.150;2023-04-03T04:19:12;2.25;;;0.80;;
2928;SDS011;1474;51.460;7.150;2023-04-03T04:21:38;1.88;;;0.75;;
2928;SDS011;1474;51.460;7.150;2023-04-03T04:24:04;0.98;;;0.35;;
2928;SDS011;1474;51.460;7.150;2023-04-03T04:26:30;2.72;;;1.17;;
2928;SDS011;1474;51.460;7.150;2023-04-03T04:28:56;0.90;;;0.90;;
2928;SDS011;1474;51.460;7.150;2023-04-03T04:31:21;2.63;;;0.77;;
2928;SDS011;1474;51.460;7.150;2023-04-03T04:33:47;0.38;;;0.38;;
2928;SDS011;1474;51.460;7.150;2023-04-03T04:36:12;2.85;;;2.65;;
2928;SDS011;1474;51.460;7.150;2023-04-03T04:38:39;0.73;;;0.73;;
2928;SDS011;1474;51.460;7.150;2023-04-03T04:41:05;0.70;;;0.70;;
2928;SDS011;1474;51.460;7.150;2023-04-03T04:43:31;2.97;;;0.60;;
2928;SDS011;1474;51.460;7.150;2023-04-03T04:46:01;0.50;;;0.50;;
2928;SDS011;1474;51.460;7.150;2023-04-03T04:48:34;0.90;;;0.90;;
2928;SDS011;1474;51.460;7.150;2023-04-03T04:51:00;1.13;;;0.75;;
2928;SDS011;1474;51.460;7.150;2023-04-03T04:53:27;2.65;;;1.00;;
2928;SDS011;1474;51.460;7.150;2023-04-03T04:55:53;0.43;;;0.43;;
2928;SDS011;1474;51.460;7.150;2023-04-03T04:58:18;0.75;;;0.75;;
2928;SDS011;1474;51.460;7.150;2023-04-03T05:00:45;1.92;;;1.02;;
2928;SDS011;1474;51.460;7.150;2023-04-03T05:03:10;1.38;;;1.13;;
2928;SDS011;1474;51.460;7.150;2023-04-03T05:05:36;5.68;;;1.60;;
2928;SDS011;1474;51.460;7.150;2023-04-03T05:08:03;2.47;;;0.88;;
2928;SDS011;1474;51.460;7.150;2023-04-03T05:10:29;1.20;;;0.55;;
2928;SDS011;1474;51.460;7.150;2023-04-03T05:12:56;0.60;;;0.60;;
2928;SDS011;1474;51.460;7.150;2023-04-03T05:15:22;1.83;;;0.80;;
2928;SDS011;1474;51.460;7.150;2023-04-03T05:17:48;1.95;;;0.57;;
2928;SDS011;1474;51.460;7.150;2023-04-03T05:20:14;1.63;;;0.70;;
2928;SDS011;1474;51.460;7.150;2023-04-03T05:22:39;0.40;;;0.40;;
2928;SDS011;1474;51.460;7.150;2023-04-03T05:25:05;1.83;;;1.42;;
2928;SDS011;1474;51.460;7.150;2023-04-03T05:27:31;10.40;;;1.73;;
2928;SDS011;1474;51.460;7.150;2023-04-03T05:29:57;1.65;;;0.90;;
2928;SDS011;1474;51.460;7.150;2023-04-03T05:32:23;1.55;;;0.95;;
2928;SDS011;1474;51.460;7.150;2023-04-03T05:34:50;0.85;;;0.85;;
2928;SDS011;1474;51.460;7.150;2023-04-03T05:37:16;0.65;;;0.65;;
2928;SDS011;1474;51.460;7.150;2023-04-03T05:39:42;5.15;;;1.08;;
2928;SDS011;1474;51.460;7.150;2023-04-03T05:42:08;0.60;;;0.60;;
2928;SDS011;1474;51.460;7.150;2023-04-03T05:44:33;3.05;;;1.50;;
2928;SDS011;1474;51.460;7.150;2023-04-03T05:47:00;2.58;;;1.33;;
2928;SDS011;1474;51.460;7.150;2023-04-03T05:49:25;1.40;;;1.02;;
2928;SDS011;1474;51.460;7.150;2023-04-03T05:51:51;3.13;;;1.35;;
2928;SDS011;1474;51.460;7.150;2023-04-03T05:54:29;1.95;;;0.63;;
2928;SDS011;1474;51.460;7.150;2023-04-03T05:56:55;1.65;;;0.93;;
2928;SDS011;1474;51.460;7.150;2023-04-03T05:59:21;2.65;;;1.17;;
2928;SDS011;1474;51.460;7.150;2023-04-03T06:01:47;3.58;;;1.23;;
2928;SDS011;1474;51.460;7.150;2023-04-03T06:04:13;2.08;;;0.85;;
2928;SDS011;1474;51.460;7.150;2023-04-03T06:06:46;2.67;;;0.98;;
2928;SDS011;1474;51.460;7.150;2023-04-03T06:09:14;8.73;;;1.42;;
2928;SDS011;1474;51.460;7.150;2023-04-03T06:11:41;3.45;;;1.42;;
2928;SDS011;1474;51.460;7.150;2023-04-03T06:14:07;2.50;;;0.63;;
2928;SDS011;1474;51.460;7.150;2023-04-03T06:16:33;2.33;;;0.98;;
2928;SDS011;1474;51.460;7.150;2023-04-03T06:18:59;0.75;;;0.75;;
2928;SDS011;1474;51.460;7.150;2023-04-03T06:21:25;1.63;;;1.48;;
2928;SDS011;1474;51.460;7.150;2023-04-03T06:23:51;0.90;;;0.90;;
2928;SDS011;1474;51.460;7.150;2023-04-03T06:26:17;0.85;;;0.75;;
2928;SDS011;1474;51.460;7.150;2023-04-03T06:28:42;1.05;;;0.60;;
2928;SDS011;1474;51.460;7.150;2023-04-03T06:31:08;3.97;;;1.52;;
2928;SDS011;1474;51.460;7.150;2023-04-03T06:33:34;3.65;;;1.40;;
2928;SDS011;1474;51.460;7.150;2023-04-03T06:36:03;1.52;;;1.30;;
2928;SDS011;1474;51.460;7.150;2023-04-03T06:38:29;0.77;;;0.50;;
2928;SDS011;1474;51.460;7.150;2023-04-03T06:40:55;0.93;;;0.90;;
2928;SDS011;1474;51.460;7.150;2023-04-03T06:43:21;0.82;;;0.82;;
2928;SDS011;1474;51.460;7.150;2023-04-03T06:45:46;1.02;;;0.60;;
2928;SDS011;1474;51.460;7.150;2023-04-03T06:48:12;1.67;;;1.27;;
2928;SDS011;1474;51.460;7.150;2023-04-03T06:50:38;8.70;;;2.08;;
2928;SDS011;1474;51.460;7.150;2023-04-03T06:53:04;1.05;;;0.82;;
2928;SDS011;1474;51.460;7.150;2023-04-03T06:55:31;2.85;;;1.20;;
2928;SDS011;1474;51.460;7.150;2023-04-03T06:57:56;1.08;;;0.88;;
2928;SDS011;1474;51.460;7.150;2023-04-03T07:00:22;0.68;;;0.68;;
2928;SDS011;1474;51.460;7.150;2023-04-03T07:02:48;0.40;;;0.40;;
2928;SDS011;1474;51.460;7.150;2023-04-03T07:05:13;4.60;;;1.45;;
2928;SDS011;1474;51.460;7.150;2023-04-03T07:07:39;2.50;;;1.17;;
2928;SDS011;1474;51.460;7.150;2023-04-03T07:10:06;0.98;;;0.88;;
2928;SDS011;1474;51.460;7.150;2023-04-03T07:12:32;1.42;;;0.80;;
2928;SDS011;1474;51.460;7.150;2023-04-03T07:14:58;1.65;;;1.27;;
2928;SDS011;1474;51.460;7.150;2023-04-03T07:17:24;5.63;;;1.40;;
2928;SDS011;1474;51.460;7.150;2023-04-03T07:19:50;2.67;;;0.95;;
2928;SDS011;1474;51.460;7.150;2023-04-03T07:22:16;1.52;;;0.52;;
2928;SDS011;1474;51.460;7.150;2023-04-03T07:24:42;0.65;;;0.65;;
2928;SDS011;1474;51.460;7.150;2023-04-03T07:27:08;2.33;;;0.80;;
2928;SDS011;1474;51.460;7.150;2023-04-03T07:29:35;0.30;;;0.30;;
2928;SDS011;1474;51.460;7.150;2023-04-03T07:32:01;0.70;;;0.65;;
2928;SDS011;1474;51.460;7.150;2023-04-03T07:34:27;2.85;;;1.08;;
2928;SDS011;1474;51.460;7.150;2023-04-03T07:36:53;4.13;;;0.98;;
2928;SDS011;1474;51.460;7.150;2023-04-03T07:39:19;2.08;;;1.02;;
2928;SDS011;1474;51.460;7.150;2023-04-03T07:41:45;3.35;;;1.02;;
2928;SDS011;1474;51.460;7.150;2023-04-03T07:44:10;2.67;;;1.48;;
2928;SDS011;1474;51.460;7.150;2023-04-03T07:46:36;0.80;;;0.55;;
2928;SDS011;1474;51.460;7.150;2023-04-03T07:49:02;3.80;;;1.48;;
2928;SDS011;1474;51.460;7.150;2023-04-03T07:51:28;0.95;;;0.75;;
2928;SDS011;1474;51.460;7.150;2023-04-03T07:53:54;1.65;;;0.95;;
2928;SDS011;1474;51.460;7.150;2023-04-03T07:56:20;1.45;;;1.02;;
2928;SDS011;1474;51.460;7.150;2023-04-03T07:58:46;0.45;;;0.38;;
2928;SDS011;1474;51.460;7.150;2023-04-03T08:01:12;3.67;;;0.80;;
2928;SDS011;1474;51.460;7.150;2023-04-03T08:03:38;1.52;;;0.93;;
2928;SDS011;1474;51.460;7.150;2023-04-03T08:06:05;1.63;;;1.10;;
2928;SDS011;1474;51.460;7.150;2023-04-03T08:08:32;2.28;;;0.60;;
2928;SDS011;1474;51.460;7.150;2023-04-03T08:10:59;3.40;;;0.52;;
2928;SDS011;1474;51.460;7.150;2023-04-03T08:13:25;2.05;;;1.20;;
2928;SDS011;1474;51.460;7.150;2023-04-03T08:15:51;1.50;;;0.70;;
2928;SDS011;1474;51.460;7.150;2023-04-03T08:18:17;1.17;;;0.85;;
2928;SDS011;1474;51.460;7.150;2023-04-03T08:20:46;2.22;;;1.02;;
2928;SDS011;1474;51.460;7.150;2023-04-03T08:23:11;0.75;;;0.50;;
2928;SDS011;1474;51.460;7.150;2023-04-03T08:25:38;2.10;;;1.25;;
2928;SDS011;1474;51.460;7.150;2023-04-03T08:28:05;1.17;;;0.55;;
2928;SDS011;1474;51.460;7.150;2023-04-03T08:30:31;1.05;;;0.82;;
2928;SDS011;1474;51.460;7.150;2023-04-03T08:32:57;4.72;;;0.82;;
2928;SDS011;1474;51.460;7.150;2023-04-03T08:35:26;1.33;;;0.70;;
2928;SDS011;1474;51.460;7.150;2023-04-03T08:37:51;1.35;;;0.60;;
2928;SDS011;1474;51.460;7.150;2023-04-03T08:40:17;0.88;;;0.65;;
2928;SDS011;1474;51.460;7.150;2023-04-03T08:45:15;1.80;;;0.43;;
2928;SDS011;1474;51.460;7.150;2023-04-03T08:50:51;0.60;;;0.30;;
2928;SDS011;1474;51.460;7.150;2023-04-03T08:53:21;0.82;;;0.60;;
2928;SDS011;1474;51.460;7.150;2023-04-03T08:55:53;0.80;;;0.80;;
2928;SDS011;1474;51.460;7.150;2023-04-03T09:01:01;1.60;;;0.88;;
2928;SDS011;1474;51.460;7.150;2023-04-03T09:03:33;2.25;;;0.85;;
2928;SDS011;1474;51.460;7.150;2023-04-03T09:08:35;0.75;;;0.38;;
2928;SDS011;1474;51.460;7.150;2023-04-03T09:14:14;0.80;;;0.50;;
2928;SDS011;1474;51.460;7.150;2023-04-03T09:16:56;2.95;;;0.38;;
2928;SDS011;1474;51.460;7.150;2023-04-03T09:21:58;0.55;;;0.30;;
2928;SDS011;1474;51.460;7.150;2023-04-03T09:27:32;3.65;;;0.60;;
2928;SDS011;1474;51.460;7.150;2023-04-03T09:29:58;0.88;;;0.55;;
2928;SDS011;1474;51.460;7.150;2023-04-03T09:32:29;2.10;;;0.75;;
2928;SDS011;1474;51.460;7.150;2023-04-03T09:34:57;0.70;;;0.68;;
2928;SDS011;1474;51.460;7.150;2023-04-03T09:40:03;1.83;;;0.40;;
2928;SDS011;1474;51.460;7.150;2023-04-03T09:42:30;3.75;;;0.88;;
2928;SDS011;1474;51.460;7.150;2023-04-03T09:44:58;0.57;;;0.52;;
2928;SDS011;1474;51.460;7.150;2023-04-03T09:47:36;0.30;;;0.30;;
2928;SDS011;1474;51.460;7.150;2023-04-03T09:52:40;0.82;;;0.40;;
2928;SDS011;1474;51.460;7.150;2023-04-03T09:55:08;2.05;;;0.75;;
2928;SDS011;1474;51.460;7.150;2023-04-03T10:00:04;0.47;;;0.47;;
2928;SDS011;1474;51.460;7.150;2023-04-03T10:05:25;2.17;;;0.57;;
2928;SDS011;1474;51.460;7.150;2023-04-03T10:10:36;4.53;;;0.63;;
2928;SDS011;1474;51.460;7.150;2023-04-03T10:13:06;1.65;;;0.30;;
2928;SDS011;1474;51.460;7.150;2023-04-03T10:15:43;0.32;;;0.32;;
2928;SDS011;1474;51.460;7.150;2023-04-03T10:18:45;1.27;;;0.57;;
2928;SDS011;1474;51.460;7.150;2023-04-03T10:24:06;0.63;;;0.43;;
2928;SDS011;1474;51.460;7.150;2023-04-03T10:29:13;0.43;;;0.40;;
2928;SDS011;1474;51.460;7.150;2023-04-03T10:37:54;5.38;;;0.65;;
2928;SDS011;1474;51.460;7.150;2023-04-03T10:40:59;2.25;;;0.88;;
2928;SDS011;1474;51.460;7.150;2023-04-03T10:57:39;1.83;;;1.30;;
2928;SDS011;1474;51.460;7.150;2023-04-03T11:00:06;0.88;;;0.80;;
2928;SDS011;1474;51.460;7.150;2023-04-03T11:03:03;1.08;;;0.50;;
2928;SDS011;1474;51.460;7.150;2023-04-03T11:05:41;2.45;;;1.75;;
2928;SDS011;1474;51.460;7.150;2023-04-03T11:10:51;2.30;;;1.45;;
2928;SDS011;1474;51.460;7.150;2023-04-03T11:13:23;0.65;;;0.65;;
2928;SDS011;1474;51.460;7.150;2023-04-03T11:16:12;0.52;;;0.32;;
2928;SDS011;1474;51.460;7.150;2023-04-03T11:18:49;1.67;;;1.58;;
2928;SDS011;1474;51.460;7.150;2023-04-03T11:21:21;1.50;;;1.02;;
2928;SDS011;1474;51.460;7.150;2023-04-03T11:23:59;2.45;;;1.55;;
2928;SDS011;1474;51.460;7.150;2023-04-03T11:26:34;1.70;;;0.77;;
2928;SDS011;1474;51.460;7.150;2023-04-03T11:29:05;1.08;;;0.50;;
2928;SDS011;1474;51.460;7.150;2023-04-03T11:39:47;0.85;;;0.50;;
2928;SDS011;1474;51.460;7.150;2023-04-03T11:47:47;0.55;;;0.55;;
2928;SDS011;1474;51.460;7.150;2023-04-03T11:50:48;1.20;;;0.88;;
2928;SDS011;1474;51.460;7.150;2023-04-03T11:58:22;0.68;;;0.68;;
2928;SDS011;1474;51.460;7.150;2023-04-03T12:00:53;4.40;;;1.02;;
2928;SDS011;1474;51.460;7.150;2023-04-03T12:05:54;2.20;;;1.30;;
2928;SDS011;1474;51.460;7.150;2023-04-03T12:08:29;2.13;;;0.82;;
2928;SDS011;1474;51.460;7.150;2023-04-03T12:13:41;2.50;;;1.45;;
2928;SDS011;1474;51.460;7.150;2023-04-03T12:21:21;2.20;;;1.20;;
2928;SDS011;1474;51.460;7.150;2023-04-03T12:24:04;0.80;;;0.75;;
2928;SDS011;1474;51.460;7.150;2023-04-03T12:26:31;1.25;;;0.85;;
2928;SDS011;1474;51.460;7.150;2023-04-03T12:29:13;0.70;;;0.70;;
2928;SDS011;1474;51.460;7.150;2023-04-03T12:37:57;1.75;;;1.00;;
2928;SDS011;1474;51.460;7.150;2023-04-03T12:40:50;4.20;;;0.98;;
2928;SDS011;1474;51.460;7.150;2023-04-03T12:46:35;2.10;;;1.40;;
2928;SDS011;1474;51.460;7.150;2023-04-03T12:51:54;1.58;;;0.82;;
2928;SDS011;1474;51.460;7.150;2023-04-03T12:54:26;1.33;;;0.63;;
2928;SDS011;1474;51.460;7.150;2023-04-03T12:57:09;2.13;;;0.75;;
2928;SDS011;1474;51.460;7.150;2023-04-03T12:59:35;0.63;;;0.50;;
2928;SDS011;1474;51.460;7.150;2023-04-03T13:02:01;1.95;;;0.70;;
2928;SDS011;1474;51.460;7.150;2023-04-03T13:04:28;1.65;;;0.85;;
2928;SDS011;1474;51.460;7.150;2023-04-03T13:06:56;2.40;;;0.77;;
2928;SDS011;1474;51.460;7.150;2023-04-03T13:09:23;0.20;;;0.20;;
2928;SDS011;1474;51.460;7.150;2023-04-03T13:12:09;1.20;;;0.70;;
2928;SDS011;1474;51.460;7.150;2023-04-03T13:14:37;1.02;;;0.60;;
2928;SDS011;1474;51.460;7.150;2023-04-03T13:17:05;1.90;;;0.63;;
2928;SDS011;1474;51.460;7.150;2023-04-03T13:19:37;1.13;;;0.90;;
2928;SDS011;1474;51.460;7.150;2023-04-03T13:22:05;0.75;;;0.50;;
2928;SDS011;1474;51.460;7.150;2023-04-03T13:24:37;1.17;;;0.57;;
2928;SDS011;1474;51.460;7.150;2023-04-03T13:27:04;1.02;;;0.50;;
2928;SDS011;1474;51.460;7.150;2023-04-03T13:29:35;0.40;;;0.40;;
2928;SDS011;1474;51.460;7.150;2023-04-03T13:32:03;0.60;;;0.60;;
2928;SDS011;1474;51.460;7.150;2023-04-03T13:34:38;2.80;;;0.75;;
2928;SDS011;1474;51.460;7.150;2023-04-03T13:37:18;2.78;;;0.73;;
2928;SDS011;1474;51.460;7.150;2023-04-03T13:39:56;1.15;;;1.02;;
2928;SDS011;1474;51.460;7.150;2023-04-03T13:42:36;3.85;;;0.90;;
2928;SDS011;1474;51.460;7.150;2023-04-03T13:45:17;2.35;;;1.40;;
2928;SDS011;1474;51.460;7.150;2023-04-03T13:47:49;1.20;;;0.80;;
2928;SDS011;1474;51.460;7.150;2023-04-03T13:50:18;0.68;;;0.47;;
2928;SDS011;1474;51.460;7.150;2023-04-03T13:52:54;1.15;;;0.55;;
2928;SDS011;1474;51.460;7.150;2023-04-03T14:03:12;2.78;;;0.70;;
2928;SDS011;1474;51.460;7.150;2023-04-03T14:05:43;1.92;;;0.98;;
2928;SDS011;1474;51.460;7.150;2023-04-03T14:08:10;0.50;;;0.40;;
2928;SDS011;1474;51.460;7.150;2023-04-03T14:10:36;2.55;;;0.50;;
2928;SDS011;1474;51.460;7.150;2023-04-03T14:13:02;0.40;;;0.40;;
2928;SDS011;1474;51.460;7.150;2023-04-03T14:15:28;2.17;;;0.77;;
2928;SDS011;1474;51.460;7.150;2023-04-03T14:17:56;1.73;;;1.08;;
2928;SDS011;1474;51.460;7.150;2023-04-03T14:20:23;1.83;;;0.60;;
2928;SDS011;1474;51.460;7.150;2023-04-03T14:22:51;0.40;;;0.35;;
2928;SDS011;1474;51.460;7.150;2023-04-03T14:25:18;0.70;;;0.43;;
2928;SDS011;1474;51.460;7.150;2023-04-03T14:27:45;1.75;;;0.90;;
2928;SDS011;1474;51.460;7.150;2023-04-03T14:30:15;1.45;;;0.80;;
2928;SDS011;1474;51.460;7.150;2023-04-03T14:32:44;1.75;;;0.80;;
2928;SDS011;1474;51.460;7.150;2023-04-03T14:35:10;3.25;;;0.85;;
2928;SDS011;1474;51.460;7.150;2023-04-03T14:37:36;1.08;;;0.65;;
2928;SDS011;1474;51.460;7.150;2023-04-03T14:40:02;1.38;;;0.77;;
2928;SDS011;1474;51.460;7.150;2023-04-03T14:42:30;3.08;;;1.10;;
2928;SDS011;1474;51.460;7.150;2023-04-03T14:44:58;1.38;;;0.80;;
2928;SDS011;1474;51.460;7.150;2023-04-03T14:47:26;1.23;;;0.77;;
2928;SDS011;1474;51.460;7.150;2023-04-03T14:49:54;2.50;;;0.70;;
2928;SDS011;1474;51.460;7.150;2023-04-03T14:54:51;1.10;;;0.85;;
2928;SDS011;1474;51.460;7.150;2023-04-03T14:57:17;1.90;;;0.77;;
2928;SDS011;1474;51.460;7.150;2023-04-03T14:59:44;1.38;;;0.80;;
2928;SDS011;1474;51.460;7.150;2023-04-03T15:04:59;0.80;;;0.63;;
2928;SDS011;1474;51.460;7.150;2023-04-03T15:07:29;1.45;;;0.90;;
2928;SDS011;1474;51.460;7.150;2023-04-03T15:09:57;1.60;;;0.88;;
2928;SDS011;1474;51.460;7.150;2023-04-03T15:12:26;1.40;;;0.90;;
2928;SDS011;1474;51.460;7.150;2023-04-03T15:14:52;1.15;;;0.70;;
2928;SDS011;1474;51.460;7.150;2023-04-03T15:17:19;0.30;;;0.30;;
2928;SDS011;1474;51.460;7.150;2023-04-03T15:19:47;2.53;;;1.00;;
2928;SDS011;1474;51.460;7.150;2023-04-03T15:22:13;6.05;;;1.13;;
2928;SDS011;1474;51.460;7.150;2023-04-03T15:24:40;1.52;;;0.88;;
2928;SDS011;1474;51.460;7.150;2023-04-03T15:27:06;1.00;;;0.77;;
2928;SDS011;1474;51.460;7.150;2023-04-03T15:29:32;2.42;;;0.80;;
2928;SDS011;1474;51.460;7.150;2023-04-03T15:31:57;1.73;;;0.68;;
2928;SDS011;1474;51.460;7.150;2023-04-03T15:34:23;2.28;;;0.70;;
2928;SDS011;1474;51.460;7.150;2023-04-03T15:36:49;0.22;;;0.22;;
2928;SDS011;1474;51.460;7.150;2023-04-03T15:39:17;1.40;;;0.75;;
2928;SDS011;1474;51.460;7.150;2023-04-03T15:41:43;2.45;;;1.02;;
2928;SDS011;1474;51.460;7.150;2023-04-03T15:44:10;0.93;;;0.70;;
2928;SDS011;1474;51.460;7.150;2023-04-03T15:46:37;1.10;;;0.68;;
2928;SDS011;1474;51.460;7.150;2023-04-03T15:49:03;1.63;;;0.70;;
2928;SDS011;1474;51.460;7.150;2023-04-03T15:51:29;2.63;;;0.80;;
2928;SDS011;1474;51.460;7.150;2023-04-03T15:53:55;1.30;;;1.20;;
2928;SDS011;1474;51.460;7.150;2023-04-03T15:56:21;1.42;;;1.02;;
2928;SDS011;1474;51.460;7.150;2023-04-03T15:58:46;0.28;;;0.28;;
2928;SDS011;1474;51.460;7.150;2023-04-03T16:01:12;1.02;;;0.65;;
2928;SDS011;1474;51.460;7.150;2023-04-03T16:03:39;2.08;;;0.70;;
2928;SDS011;1474;51.460;7.150;2023-04-03T16:06:10;0.77;;;0.68;;
2928;SDS011;1474;51.460;7.150;2023-04-03T16:08:36;3.67;;;1.73;;
2928;SDS011;1474;51.460;7.150;2023-04-03T16:11:02;1.77;;;0.80;;
2928;SDS011;1474;51.460;7.150;2023-04-03T16:13:28;2.08;;;0.60;;
2928;SDS011;1474;51.460;7.150;2023-04-03T16:15:54;4.38;;;1.00;;
2928;SDS011;1474;51.460;7.150;2023-04-03T16:18:20;5.25;;;0.70;;
2928;SDS011;1474;51.460;7.150;2023-04-03T16:20:46;1.05;;;0.95;;
2928;SDS011;1474;51.460;7.150;2023-04-03T16:23:12;0.82;;;0.82;;
2928;SDS011;1474;51.460;7.150;2023-04-03T16:25:38;2.22;;;0.77;;
2928;SDS011;1474;51.460;7.150;2023-04-03T16:28:03;1.42;;;0.95;;
2928;SDS011;1474;51.460;7.150;2023-04-03T16:30:30;2.05;;;0.88;;
2928;SDS011;1474;51.460;7.150;2023-04-03T16:32:56;0.47;;;0.47;;
2928;SDS011;1474;51.460;7.150;2023-04-03T16:35:22;1.95;;;1.05;;
2928;SDS011;1474;51.460;7.150;2023-04-03T16:37:48;1.70;;;1.05;;
2928;SDS011;1474;51.460;7.150;2023-04-03T16:40:13;1.40;;;0.70;;
2928;SDS011;1474;51.460;7.150;2023-04-03T16:42:39;0.93;;;0.63;;
2928;SDS011;1474;51.460;7.150;2023-04-03T16:45:05;1.00;;;0.50;;
2928;SDS011;1474;51.460;7.150;2023-04-03T16:47:32;2.20;;;1.42;;
2928;SDS011;1474;51.460;7.150;2023-04-03T16:49:58;1.25;;;0.60;;
2928;SDS011;1474;51.460;7.150;2023-04-03T16:52:24;0.73;;;0.70;;
2928;SDS011;1474;51.460;7.150;2023-04-03T16:54:49;6.45;;;1.50;;
2928;SDS011;1474;51.460;7.150;2023-04-03T16:57:20;3.30;;;1.10;;
2928;SDS011;1474;51.460;7.150;2023-04-03T16:59:46;1.40;;;0.77;;
2928;SDS011;1474;51.460;7.150;2023-04-03T17:02:12;0.63;;;0.52;;
2928;SDS011;1474;51.460;7.150;2023-04-03T17:04:37;1.02;;;0.65;;
2928;SDS011;1474;51.460;7.150;2023-04-03T17:07:03;0.40;;;0.40;;
2928;SDS011;1474;51.460;7.150;2023-04-03T17:09:31;1.73;;;0.60;;
2928;SDS011;1474;51.460;7.150;2023-04-03T17:11:57;0.82;;;0.70;;
2928;SDS011;1474;51.460;7.150;2023-04-03T17:14:23;0.90;;;0.88;;
2928;SDS011;1474;51.460;7.150;2023-04-03T17:16:49;0.73;;;0.73;;
2928;SDS011;1474;51.460;7.150;2023-04-03T17:19:15;2.15;;;0.60;;
2928;SDS011;1474;51.460;7.150;2023-04-03T17:21:42;2.35;;;0.55;;
2928;SDS011;1474;51.460;7.150;2023-04-03T17:24:08;1.23;;;1.17;;
2928;SDS011;1474;51.460;7.150;2023-04-03T17:26:37;0.70;;;0.40;;
2928;SDS011;1474;51.460;7.150;2023-04-03T17:29:04;1.60;;;1.02;;
2928;SDS011;1474;51.460;7.150;2023-04-03T17:31:30;4.07;;;1.58;;